sensor_id;sensor_type;location;lat;lon;timestamp;P1;durP1;ratioP1;P2;durP2;ratioP2
25569;SDS011;17955;45.542;9.238;2022-07-15T00:01:08;12.38;;;3.30;;
25569;SDS011;17955;45.542;9.238;2022-07-15T00:03:35;9.65;;;4.00;;
25569;SDS011;17955;45.542;9.238;2022-07-15T00:06:03;7.22;;;3.90;;
25569;SDS011;17955;45.542;9.238;2022-07-15T00:08:30;10.43;;;5.00;;
25569;SDS011;17955;45.542;9.238;2022-07-15T00:10:57;9.00;;;3.90;;
25569;SDS011;17955;45.542;9.238;2022-07-15T00:13:24;4.93;;;3.58;;
25569;SDS011;17955;45.542;9.238;2022-07-15T00:15:51;14.45;;;5.05;;
25569;SDS011;17955;45.542;9.238;2022-07-15T00:18:18;8.63;;;4.65;;
25569;SDS011;17955;45.542;9.238;2022-07-15T00:20:45;7.40;;;4.40;;
25569;SDS011;17955;45.542;9.238;2022-07-15T00:23:14;7.57;;;4.20;;
25569;SDS011;17955;45.542;9.238;2022-07-15T00:25:41;10.65;;;4.70;;
25569;SDS011;17955;45.542;9.238;2022-07-15T00:28:08;8.52;;;3.88;;
25569;SDS011;17955;45.542;9.238;2022-07-15T00:30:37;10.48;;;4.90;;
25569;SDS011;17955;45.542;9.238;2022-07-15T00:33:05;9.93;;;3.97;;
25569;SDS011;17955;45.542;9.238;2022-07-15T00:35:33;7.05;;;3.97;;
25569;SDS011;17955;45.542;9.238;2022-07-15T00:38:02;8.85;;;4.38;;
25569;SDS011;17955;45.542;9.238;2022-07-15T00:40:30;7.95;;;3.88;;
25569;SDS011;17955;45.542;9.238;2022-07-15T00:43:05;7.10;;;3.78;;
25569;SDS011;17955;45.542;9.238;2022-07-15T00:45:32;8.23;;;4.10;;
25569;SDS011;17955;45.542;9.238;2022-07-15T00:47:59;5.50;;;3.90;;
25569;SDS011;17955;45.542;9.238;2022-07-15T00:50:27;6.70;;;3.90;;
25569;SDS011;17955;45.542;9.238;2022-07-15T00:52:56;11.82;;;3.95;;
25569;SDS011;17955;45.542;9.238;2022-07-15T00:55:27;7.07;;;4.20;;
25569;SDS011;17955;45.542;9.238;2022-07-15T00:58:00;5.68;;;3.80;;
25569;SDS011;17955;45.542;9.238;2022-07-15T01:00:30;8.90;;;4.20;;
25569;SDS011;17955;45.542;9.238;2022-07-15T01:02:57;7.07;;;3.70;;
25569;SDS011;17955;45.542;9.238;2022-07-15T01:05:25;5.88;;;3.70;;
25569;SDS011;17955;45.542;9.238;2022-07-15T01:07:53;7.13;;;3.80;;
25569;SDS011;17955;45.542;9.238;2022-07-15T01:10:20;6.70;;;4.15;;
25569;SDS011;17955;45.542;9.238;2022-07-15T01:12:50;6.57;;;3.80;;
25569;SDS011;17955;45.542;9.238;2022-07-15T01:15:25;4.97;;;3.17;;
25569;SDS011;17955;45.542;9.238;2022-07-15T01:17:52;7.95;;;4.07;;
25569;SDS011;17955;45.542;9.238;2022-07-15T01:20:19;6.63;;;3.80;;
25569;SDS011;17955;45.542;9.238;2022-07-15T01:23:00;6.15;;;3.55;;
25569;SDS011;17955;45.542;9.238;2022-07-15T01:25:33;6.65;;;3.35;;
25569;SDS011;17955;45.542;9.238;2022-07-15T01:28:05;7.47;;;3.60;;
25569;SDS011;17955;45.542;9.238;2022-07-15T01:30:33;10.60;;;3.67;;
25569;SDS011;17955;45.542;9.238;2022-07-15T01:33:01;6.60;;;3.35;;
25569;SDS011;17955;45.542;9.238;2022-07-15T01:35:28;7.03;;;3.30;;
25569;SDS011;17955;45.542;9.238;2022-07-15T01:37:56;5.55;;;3.50;;
25569;SDS011;17955;45.542;9.238;2022-07-15T01:40:24;8.85;;;3.10;;
25569;SDS011;17955;45.542;9.238;2022-07-15T01:42:52;7.53;;;3.58;;
25569;SDS011;17955;45.542;9.238;2022-07-15T01:45:19;6.30;;;3.22;;
25569;SDS011;17955;45.542;9.238;2022-07-15T01:47:48;4.97;;;3.33;;
25569;SDS011;17955;45.542;9.238;2022-07-15T01:53:08;7.15;;;3.28;;
25569;SDS011;17955;45.542;9.238;2022-07-15T01:55:37;8.98;;;3.13;;
25569;SDS011;17955;45.542;9.238;2022-07-15T01:58:04;5.53;;;3.38;;
25569;SDS011;17955;45.542;9.238;2022-07-15T02:00:32;7.35;;;3.05;;
25569;SDS011;17955;45.542;9.238;2022-07-15T02:02:59;5.97;;;3.42;;
25569;SDS011;17955;45.542;9.238;2022-07-15T02:05:26;8.15;;;3.67;;
25569;SDS011;17955;45.542;9.238;2022-07-15T02:07:54;5.47;;;3.42;;
25569;SDS011;17955;45.542;9.238;2022-07-15T02:10:22;9.13;;;3.65;;
25569;SDS011;17955;45.542;9.238;2022-07-15T02:12:52;5.30;;;3.45;;
25569;SDS011;17955;45.542;9.238;2022-07-15T02:15:24;8.07;;;3.45;;
25569;SDS011;17955;45.542;9.238;2022-07-15T02:17:55;8.13;;;3.50;;
25569;SDS011;17955;45.542;9.238;2022-07-15T02:20:26;8.55;;;3.63;;
25569;SDS011;17955;45.542;9.238;2022-07-15T02:22:54;8.93;;;3.55;;
25569;SDS011;17955;45.542;9.238;2022-07-15T02:25:23;11.48;;;3.55;;
25569;SDS011;17955;45.542;9.238;2022-07-15T02:27:54;9.57;;;3.63;;
25569;SDS011;17955;45.542;9.238;2022-07-15T02:30:23;8.88;;;3.38;;
25569;SDS011;17955;45.542;9.238;2022-07-15T02:32:50;6.95;;;3.20;;
25569;SDS011;17955;45.542;9.238;2022-07-15T02:35:18;4.70;;;2.97;;
25569;SDS011;17955;45.542;9.238;2022-07-15T02:37:45;6.93;;;3.25;;
25569;SDS011;17955;45.542;9.238;2022-07-15T02:40:13;5.50;;;3.30;;
25569;SDS011;17955;45.542;9.238;2022-07-15T02:42:45;6.60;;;2.88;;
25569;SDS011;17955;45.542;9.238;2022-07-15T02:45:15;5.20;;;3.13;;
25569;SDS011;17955;45.542;9.238;2022-07-15T02:47:43;8.70;;;3.70;;
25569;SDS011;17955;45.542;9.238;2022-07-15T02:50:12;4.97;;;3.28;;
25569;SDS011;17955;45.542;9.238;2022-07-15T02:52:39;6.53;;;3.45;;
25569;SDS011;17955;45.542;9.238;2022-07-15T02:55:07;6.22;;;3.38;;
25569;SDS011;17955;45.542;9.238;2022-07-15T02:57:35;8.43;;;3.53;;
25569;SDS011;17955;45.542;9.238;2022-07-15T03:00:03;5.72;;;3.17;;
25569;SDS011;17955;45.542;9.238;2022-07-15T03:02:33;8.23;;;3.45;;
25569;SDS011;17955;45.542;9.238;2022-07-15T03:05:04;5.93;;;3.58;;
25569;SDS011;17955;45.542;9.238;2022-07-15T03:07:33;5.45;;;3.45;;
25569;SDS011;17955;45.542;9.238;2022-07-15T03:10:01;11.25;;;3.85;;
25569;SDS011;17955;45.542;9.238;2022-07-15T03:12:29;4.35;;;3.10;;
25569;SDS011;17955;45.542;9.238;2022-07-15T03:14:58;8.32;;;3.30;;
25569;SDS011;17955;45.542;9.238;2022-07-15T03:17:25;7.22;;;3.42;;
25569;SDS011;17955;45.542;9.238;2022-07-15T03:19:54;7.22;;;3.65;;
25569;SDS011;17955;45.542;9.238;2022-07-15T03:22:23;7.57;;;3.88;;
25569;SDS011;17955;45.542;9.238;2022-07-15T03:24:53;6.55;;;3.38;;
25569;SDS011;17955;45.542;9.238;2022-07-15T03:27:20;5.63;;;3.60;;
25569;SDS011;17955;45.542;9.238;2022-07-15T03:29:48;7.85;;;3.28;;
25569;SDS011;17955;45.542;9.238;2022-07-15T03:32:16;5.43;;;3.28;;
25569;SDS011;17955;45.542;9.238;2022-07-15T03:34:46;6.38;;;3.63;;
25569;SDS011;17955;45.542;9.238;2022-07-15T03:37:18;7.28;;;3.38;;
25569;SDS011;17955;45.542;9.238;2022-07-15T03:39:47;7.63;;;3.13;;
25569;SDS011;17955;45.542;9.238;2022-07-15T03:42:15;7.05;;;3.35;;
25569;SDS011;17955;45.542;9.238;2022-07-15T03:44:43;7.50;;;3.70;;
25569;SDS011;17955;45.542;9.238;2022-07-15T03:47:10;11.82;;;3.90;;
25569;SDS011;17955;45.542;9.238;2022-07-15T03:49:37;5.70;;;3.55;;
25569;SDS011;17955;45.542;9.238;2022-07-15T03:52:05;7.88;;;4.13;;
25569;SDS011;17955;45.542;9.238;2022-07-15T03:54:35;11.90;;;4.38;;
25569;SDS011;17955;45.542;9.238;2022-07-15T03:57:03;6.38;;;3.80;;
25569;SDS011;17955;45.542;9.238;2022-07-15T03:59:30;7.25;;;3.30;;
25569;SDS011;17955;45.542;9.238;2022-07-15T04:01:57;5.60;;;3.17;;
25569;SDS011;17955;45.542;9.238;2022-07-15T04:04:24;9.90;;;3.97;;
25569;SDS011;17955;45.542;9.238;2022-07-15T04:06:51;5.68;;;3.78;;
25569;SDS011;17955;45.542;9.238;2022-07-15T04:09:21;10.75;;;4.18;;
25569;SDS011;17955;45.542;9.238;2022-07-15T04:11:50;12.40;;;4.30;;
25569;SDS011;17955;45.542;9.238;2022-07-15T04:14:17;8.38;;;4.60;;
25569;SDS011;17955;45.542;9.238;2022-07-15T04:16:47;13.60;;;4.30;;
25569;SDS011;17955;45.542;9.238;2022-07-15T04:19:24;13.27;;;4.38;;
25569;SDS011;17955;45.542;9.238;2022-07-15T04:21:55;9.68;;;4.80;;
25569;SDS011;17955;45.542;9.238;2022-07-15T04:24:22;9.10;;;4.07;;
25569;SDS011;17955;45.542;9.238;2022-07-15T04:26:51;13.27;;;3.90;;
25569;SDS011;17955;45.542;9.238;2022-07-15T04:29:18;12.68;;;4.75;;
25569;SDS011;17955;45.542;9.238;2022-07-15T04:31:45;10.27;;;4.45;;
25569;SDS011;17955;45.542;9.238;2022-07-15T04:34:19;10.45;;;4.93;;
25569;SDS011;17955;45.542;9.238;2022-07-15T04:36:47;6.85;;;4.20;;
25569;SDS011;17955;45.542;9.238;2022-07-15T04:39:14;7.97;;;4.13;;
25569;SDS011;17955;45.542;9.238;2022-07-15T04:41:40;6.65;;;4.07;;
25569;SDS011;17955;45.542;9.238;2022-07-15T04:44:09;10.93;;;3.85;;
25569;SDS011;17955;45.542;9.238;2022-07-15T04:46:36;7.18;;;3.58;;
25569;SDS011;17955;45.542;9.238;2022-07-15T04:49:42;6.28;;;4.30;;
25569;SDS011;17955;45.542;9.238;2022-07-15T04:52:26;7.22;;;3.70;;
25569;SDS011;17955;45.542;9.238;2022-07-15T04:54:55;8.65;;;4.07;;
25569;SDS011;17955;45.542;9.238;2022-07-15T04:57:23;8.40;;;3.72;;
25569;SDS011;17955;45.542;9.238;2022-07-15T04:59:51;5.80;;;3.50;;
25569;SDS011;17955;45.542;9.238;2022-07-15T05:02:18;6.82;;;4.43;;
25569;SDS011;17955;45.542;9.238;2022-07-15T05:04:47;6.53;;;3.50;;
25569;SDS011;17955;45.542;9.238;2022-07-15T05:07:16;7.22;;;4.28;;
25569;SDS011;17955;45.542;9.238;2022-07-15T05:09:44;10.40;;;3.88;;
25569;SDS011;17955;45.542;9.238;2022-07-15T05:12:11;8.13;;;3.95;;
25569;SDS011;17955;45.542;9.238;2022-07-15T05:14:45;6.93;;;3.55;;
25569;SDS011;17955;45.542;9.238;2022-07-15T05:17:15;8.30;;;4.10;;
25569;SDS011;17955;45.542;9.238;2022-07-15T05:19:44;7.47;;;3.92;;
25569;SDS011;17955;45.542;9.238;2022-07-15T05:22:17;7.28;;;3.70;;
25569;SDS011;17955;45.542;9.238;2022-07-15T05:24:44;8.20;;;3.70;;
25569;SDS011;17955;45.542;9.238;2022-07-15T05:27:13;7.05;;;3.40;;
25569;SDS011;17955;45.542;9.238;2022-07-15T05:29:42;6.93;;;3.35;;
25569;SDS011;17955;45.542;9.238;2022-07-15T05:32:10;8.65;;;3.53;;
25569;SDS011;17955;45.542;9.238;2022-07-15T05:34:39;11.82;;;4.45;;
25569;SDS011;17955;45.542;9.238;2022-07-15T05:37:08;8.23;;;3.50;;
25569;SDS011;17955;45.542;9.238;2022-07-15T05:39:35;8.85;;;3.72;;
25569;SDS011;17955;45.542;9.238;2022-07-15T05:42:03;6.97;;;3.63;;
25569;SDS011;17955;45.542;9.238;2022-07-15T05:44:32;10.85;;;3.78;;
25569;SDS011;17955;45.542;9.238;2022-07-15T05:47:02;17.88;;;4.07;;
25569;SDS011;17955;45.542;9.238;2022-07-15T05:49:28;9.57;;;3.33;;
25569;SDS011;17955;45.542;9.238;2022-07-15T05:51:57;18.33;;;3.90;;
25569;SDS011;17955;45.542;9.238;2022-07-15T05:54:24;6.68;;;3.42;;
25569;SDS011;17955;45.542;9.238;2022-07-15T05:56:51;12.43;;;3.80;;
25569;SDS011;17955;45.542;9.238;2022-07-15T05:59:21;7.30;;;3.30;;
25569;SDS011;17955;45.542;9.238;2022-07-15T06:01:48;8.63;;;3.47;;
25569;SDS011;17955;45.542;9.238;2022-07-15T06:04:15;8.18;;;3.67;;
25569;SDS011;17955;45.542;9.238;2022-07-15T06:06:46;5.28;;;3.33;;
25569;SDS011;17955;45.542;9.238;2022-07-15T06:09:14;10.65;;;3.70;;
25569;SDS011;17955;45.542;9.238;2022-07-15T06:11:41;8.80;;;3.72;;
25569;SDS011;17955;45.542;9.238;2022-07-15T06:14:09;7.88;;;3.63;;
25569;SDS011;17955;45.542;9.238;2022-07-15T06:16:36;10.15;;;3.63;;
25569;SDS011;17955;45.542;9.238;2022-07-15T06:19:04;11.38;;;6.63;;
25569;SDS011;17955;45.542;9.238;2022-07-15T06:21:34;8.02;;;3.70;;
25569;SDS011;17955;45.542;9.238;2022-07-15T06:24:01;8.52;;;3.80;;
25569;SDS011;17955;45.542;9.238;2022-07-15T06:26:30;8.35;;;3.35;;
25569;SDS011;17955;45.542;9.238;2022-07-15T06:28:57;7.20;;;4.32;;
25569;SDS011;17955;45.542;9.238;2022-07-15T06:31:25;10.77;;;3.92;;
25569;SDS011;17955;45.542;9.238;2022-07-15T06:33:52;9.77;;;3.78;;
25569;SDS011;17955;45.542;9.238;2022-07-15T06:36:18;6.90;;;3.50;;
25569;SDS011;17955;45.542;9.238;2022-07-15T06:38:45;7.63;;;3.38;;
25569;SDS011;17955;45.542;9.238;2022-07-15T06:41:15;8.13;;;3.35;;
25569;SDS011;17955;45.542;9.238;2022-07-15T06:43:44;8.13;;;3.25;;
25569;SDS011;17955;45.542;9.238;2022-07-15T06:46:25;8.73;;;3.60;;
25569;SDS011;17955;45.542;9.238;2022-07-15T06:48:54;10.57;;;3.22;;
25569;SDS011;17955;45.542;9.238;2022-07-15T06:51:21;9.48;;;3.85;;
25569;SDS011;17955;45.542;9.238;2022-07-15T06:53:48;8.32;;;3.72;;
25569;SDS011;17955;45.542;9.238;2022-07-15T06:56:15;14.68;;;3.50;;
25569;SDS011;17955;45.542;9.238;2022-07-15T06:58:42;10.85;;;3.35;;
25569;SDS011;17955;45.542;9.238;2022-07-15T07:01:11;9.38;;;3.40;;
25569;SDS011;17955;45.542;9.238;2022-07-15T07:03:39;9.45;;;3.40;;
25569;SDS011;17955;45.542;9.238;2022-07-15T07:06:06;11.57;;;3.50;;
25569;SDS011;17955;45.542;9.238;2022-07-15T07:08:34;6.70;;;2.90;;
25569;SDS011;17955;45.542;9.238;2022-07-15T07:11:01;8.50;;;3.47;;
25569;SDS011;17955;45.542;9.238;2022-07-15T07:13:28;9.27;;;4.32;;
25569;SDS011;17955;45.542;9.238;2022-07-15T07:15:57;10.02;;;3.85;;
25569;SDS011;17955;45.542;9.238;2022-07-15T07:18:24;7.20;;;3.20;;
25569;SDS011;17955;45.542;9.238;2022-07-15T07:20:51;9.00;;;3.55;;
25569;SDS011;17955;45.542;9.238;2022-07-15T07:23:18;7.15;;;2.88;;
25569;SDS011;17955;45.542;9.238;2022-07-15T07:25:48;10.93;;;3.40;;
25569;SDS011;17955;45.542;9.238;2022-07-15T07:28:15;12.95;;;3.20;;
25569;SDS011;17955;45.542;9.238;2022-07-15T07:30:42;8.07;;;4.03;;
25569;SDS011;17955;45.542;9.238;2022-07-15T07:33:10;8.82;;;2.92;;
25569;SDS011;17955;45.542;9.238;2022-07-15T07:35:38;7.47;;;3.13;;
25569;SDS011;17955;45.542;9.238;2022-07-15T07:38:05;7.65;;;3.13;;
25569;SDS011;17955;45.542;9.238;2022-07-15T07:40:32;6.63;;;3.08;;
25569;SDS011;17955;45.542;9.238;2022-07-15T07:42:59;10.25;;;2.90;;
25569;SDS011;17955;45.542;9.238;2022-07-15T07:45:26;7.53;;;3.13;;
25569;SDS011;17955;45.542;9.238;2022-07-15T07:47:53;7.57;;;3.20;;
25569;SDS011;17955;45.542;9.238;2022-07-15T07:50:23;7.75;;;3.17;;
25569;SDS011;17955;45.542;9.238;2022-07-15T07:52:51;6.80;;;3.05;;
25569;SDS011;17955;45.542;9.238;2022-07-15T07:55:19;8.25;;;3.15;;
25569;SDS011;17955;45.542;9.238;2022-07-15T07:57:46;8.50;;;3.40;;
25569;SDS011;17955;45.542;9.238;2022-07-15T08:00:14;6.32;;;3.03;;
25569;SDS011;17955;45.542;9.238;2022-07-15T08:02:42;8.88;;;3.08;;
25569;SDS011;17955;45.542;9.238;2022-07-15T08:05:09;7.72;;;3.05;;
25569;SDS011;17955;45.542;9.238;2022-07-15T08:07:38;8.35;;;3.30;;
25569;SDS011;17955;45.542;9.238;2022-07-15T08:10:06;6.60;;;3.05;;
25569;SDS011;17955;45.542;9.238;2022-07-15T08:12:35;5.40;;;3.25;;
25569;SDS011;17955;45.542;9.238;2022-07-15T08:15:03;8.18;;;3.63;;
25569;SDS011;17955;45.542;9.238;2022-07-15T08:17:31;10.23;;;3.35;;
25569;SDS011;17955;45.542;9.238;2022-07-15T08:19:58;8.10;;;3.42;;
25569;SDS011;17955;45.542;9.238;2022-07-15T08:22:25;7.53;;;3.38;;
25569;SDS011;17955;45.542;9.238;2022-07-15T08:24:53;11.13;;;4.03;;
25569;SDS011;17955;45.542;9.238;2022-07-15T08:27:20;6.22;;;3.67;;
25569;SDS011;17955;45.542;9.238;2022-07-15T08:29:47;5.03;;;3.10;;
25569;SDS011;17955;45.542;9.238;2022-07-15T08:32:14;6.47;;;3.22;;
25569;SDS011;17955;45.542;9.238;2022-07-15T08:34:41;12.02;;;3.38;;
25569;SDS011;17955;45.542;9.238;2022-07-15T08:37:08;6.78;;;3.42;;
25569;SDS011;17955;45.542;9.238;2022-07-15T08:39:35;7.03;;;3.42;;
25569;SDS011;17955;45.542;9.238;2022-07-15T08:42:04;7.03;;;3.55;;
25569;SDS011;17955;45.542;9.238;2022-07-15T08:44:32;7.30;;;3.53;;
25569;SDS011;17955;45.542;9.238;2022-07-15T08:47:01;9.80;;;3.55;;
25569;SDS011;17955;45.542;9.238;2022-07-15T08:49:29;4.80;;;3.53;;
25569;SDS011;17955;45.542;9.238;2022-07-15T08:51:57;7.43;;;3.70;;
25569;SDS011;17955;45.542;9.238;2022-07-15T08:54:26;6.30;;;3.85;;
25569;SDS011;17955;45.542;9.238;2022-07-15T08:56:53;6.22;;;3.42;;
25569;SDS011;17955;45.542;9.238;2022-07-15T08:59:22;8.23;;;3.65;;
25569;SDS011;17955;45.542;9.238;2022-07-15T09:01:49;5.93;;;3.40;;
25569;SDS011;17955;45.542;9.238;2022-07-15T09:04:18;8.38;;;3.30;;
25569;SDS011;17955;45.542;9.238;2022-07-15T09:06:45;6.38;;;4.00;;
25569;SDS011;17955;45.542;9.238;2022-07-15T09:09:27;7.05;;;3.85;;
25569;SDS011;17955;45.542;9.238;2022-07-15T09:11:56;9.35;;;3.60;;
25569;SDS011;17955;45.542;9.238;2022-07-15T09:14:28;11.60;;;3.80;;
25569;SDS011;17955;45.542;9.238;2022-07-15T09:17:06;5.60;;;3.88;;
25569;SDS011;17955;45.542;9.238;2022-07-15T09:20:04;7.15;;;3.88;;
25569;SDS011;17955;45.542;9.238;2022-07-15T09:22:34;6.32;;;3.80;;
25569;SDS011;17955;45.542;9.238;2022-07-15T09:25:15;8.27;;;3.90;;
25569;SDS011;17955;45.542;9.238;2022-07-15T09:27:43;6.97;;;3.67;;
25569;SDS011;17955;45.542;9.238;2022-07-15T09:30:14;5.88;;;3.17;;
25569;SDS011;17955;45.542;9.238;2022-07-15T09:33:02;9.27;;;3.50;;
25569;SDS011;17955;45.542;9.238;2022-07-15T09:36:06;7.40;;;3.55;;
25569;SDS011;17955;45.542;9.238;2022-07-15T09:38:55;4.47;;;3.30;;
25569;SDS011;17955;45.542;9.238;2022-07-15T09:41:24;6.15;;;3.78;;
25569;SDS011;17955;45.542;9.238;2022-07-15T09:43:55;5.63;;;3.70;;
25569;SDS011;17955;45.542;9.238;2022-07-15T09:46:25;7.63;;;3.33;;
25569;SDS011;17955;45.542;9.238;2022-07-15T09:48:53;9.00;;;3.70;;
25569;SDS011;17955;45.542;9.238;2022-07-15T09:51:21;6.65;;;3.92;;
25569;SDS011;17955;45.542;9.238;2022-07-15T09:53:50;9.65;;;3.70;;
25569;SDS011;17955;45.542;9.238;2022-07-15T09:56:18;6.40;;;3.65;;
25569;SDS011;17955;45.542;9.238;2022-07-15T09:58:51;10.77;;;3.63;;
25569;SDS011;17955;45.542;9.238;2022-07-15T10:01:18;10.45;;;3.67;;
25569;SDS011;17955;45.542;9.238;2022-07-15T10:03:47;10.45;;;3.88;;
25569;SDS011;17955;45.542;9.238;2022-07-15T10:06:18;10.95;;;4.43;;
25569;SDS011;17955;45.542;9.238;2022-07-15T10:08:47;7.85;;;3.90;;
25569;SDS011;17955;45.542;9.238;2022-07-15T10:11:15;6.10;;;4.22;;
25569;SDS011;17955;45.542;9.238;2022-07-15T10:20:02;9.73;;;4.57;;
25569;SDS011;17955;45.542;9.238;2022-07-15T10:22:42;6.80;;;4.20;;
25569;SDS011;17955;45.542;9.238;2022-07-15T10:25:23;11.38;;;4.63;;
25569;SDS011;17955;45.542;9.238;2022-07-15T10:28:03;8.98;;;4.40;;
25569;SDS011;17955;45.542;9.238;2022-07-15T10:30:34;6.85;;;4.72;;
25569;SDS011;17955;45.542;9.238;2022-07-15T10:33:09;46.42;;;5.47;;
25569;SDS011;17955;45.542;9.238;2022-07-15T10:35:41;12.13;;;3.83;;
25569;SDS011;17955;45.542;9.238;2022-07-15T10:38:23;8.15;;;4.47;;
25569;SDS011;17955;45.542;9.238;2022-07-15T10:40:58;9.25;;;4.55;;
25569;SDS011;17955;45.542;9.238;2022-07-15T10:43:40;6.20;;;4.63;;
25569;SDS011;17955;45.542;9.238;2022-07-15T10:46:21;6.85;;;4.43;;
25569;SDS011;17955;45.542;9.238;2022-07-15T10:48:51;12.70;;;6.28;;
25569;SDS011;17955;45.542;9.238;2022-07-15T10:57:12;8.25;;;4.38;;
25569;SDS011;17955;45.542;9.238;2022-07-15T10:59:48;9.30;;;4.43;;
25569;SDS011;17955;45.542;9.238;2022-07-15T11:02:17;10.38;;;4.80;;
25569;SDS011;17955;45.542;9.238;2022-07-15T11:04:46;7.15;;;4.57;;
25569;SDS011;17955;45.542;9.238;2022-07-15T11:07:19;13.52;;;5.63;;
25569;SDS011;17955;45.542;9.238;2022-07-15T11:10:17;13.45;;;4.97;;
25569;SDS011;17955;45.542;9.238;2022-07-15T11:12:54;6.68;;;4.40;;
25569;SDS011;17955;45.542;9.238;2022-07-15T11:15:29;10.00;;;4.95;;
25569;SDS011;17955;45.542;9.238;2022-07-15T11:17:56;11.32;;;4.88;;
25569;SDS011;17955;45.542;9.238;2022-07-15T11:20:24;6.68;;;4.93;;
25569;SDS011;17955;45.542;9.238;2022-07-15T11:22:55;8.45;;;4.78;;
25569;SDS011;17955;45.542;9.238;2022-07-15T11:25:24;34.88;;;7.50;;
25569;SDS011;17955;45.542;9.238;2022-07-15T11:27:57;20.23;;;5.20;;
25569;SDS011;17955;45.542;9.238;2022-07-15T11:30:27;49.40;;;8.25;;
25569;SDS011;17955;45.542;9.238;2022-07-15T11:32:57;32.58;;;6.38;;
25569;SDS011;17955;45.542;9.238;2022-07-15T11:35:25;8.05;;;4.78;;
25569;SDS011;17955;45.542;9.238;2022-07-15T11:37:59;17.13;;;5.47;;
25569;SDS011;17955;45.542;9.238;2022-07-15T11:40:29;10.88;;;5.05;;
25569;SDS011;17955;45.542;9.238;2022-07-15T11:43:16;10.30;;;4.75;;
25569;SDS011;17955;45.542;9.238;2022-07-15T11:46:02;12.38;;;5.10;;
25569;SDS011;17955;45.542;9.238;2022-07-15T11:48:37;15.02;;;4.95;;
25569;SDS011;17955;45.542;9.238;2022-07-15T11:51:06;8.32;;;5.30;;
25569;SDS011;17955;45.542;9.238;2022-07-15T11:53:37;9.18;;;4.75;;
25569;SDS011;17955;45.542;9.238;2022-07-15T11:56:05;7.25;;;4.60;;
25569;SDS011;17955;45.542;9.238;2022-07-15T11:58:34;10.15;;;5.13;;
25569;SDS011;17955;45.542;9.238;2022-07-15T12:01:03;7.15;;;4.40;;
25569;SDS011;17955;45.542;9.238;2022-07-15T12:03:31;11.68;;;5.00;;
25569;SDS011;17955;45.542;9.238;2022-07-15T12:06:09;7.10;;;4.60;;
25569;SDS011;17955;45.542;9.238;2022-07-15T12:08:41;10.52;;;4.53;;
25569;SDS011;17955;45.542;9.238;2022-07-15T12:11:14;9.13;;;4.80;;
25569;SDS011;17955;45.542;9.238;2022-07-15T12:13:44;11.23;;;4.82;;
25569;SDS011;17955;45.542;9.238;2022-07-15T12:16:13;12.68;;;4.53;;
25569;SDS011;17955;45.542;9.238;2022-07-15T12:18:44;8.38;;;4.55;;
25569;SDS011;17955;45.542;9.238;2022-07-15T12:21:11;10.05;;;4.60;;
25569;SDS011;17955;45.542;9.238;2022-07-15T12:23:40;6.82;;;4.13;;
25569;SDS011;17955;45.542;9.238;2022-07-15T12:26:08;8.07;;;4.50;;
25569;SDS011;17955;45.542;9.238;2022-07-15T12:28:36;7.15;;;4.47;;
25569;SDS011;17955;45.542;9.238;2022-07-15T12:31:04;13.15;;;5.15;;
25569;SDS011;17955;45.542;9.238;2022-07-15T12:33:34;10.02;;;4.75;;
25569;SDS011;17955;45.542;9.238;2022-07-15T12:36:16;7.22;;;4.78;;
25569;SDS011;17955;45.542;9.238;2022-07-15T12:38:46;8.82;;;4.53;;
25569;SDS011;17955;45.542;9.238;2022-07-15T12:41:32;7.80;;;4.15;;
25569;SDS011;17955;45.542;9.238;2022-07-15T12:44:00;9.32;;;4.32;;
25569;SDS011;17955;45.542;9.238;2022-07-15T12:49:39;8.60;;;4.20;;
25569;SDS011;17955;45.542;9.238;2022-07-15T12:52:19;12.05;;;4.00;;
25569;SDS011;17955;45.542;9.238;2022-07-15T12:54:49;6.68;;;4.30;;
25569;SDS011;17955;45.542;9.238;2022-07-15T12:57:18;6.90;;;3.55;;
25569;SDS011;17955;45.542;9.238;2022-07-15T12:59:49;7.95;;;4.03;;
25569;SDS011;17955;45.542;9.238;2022-07-15T13:02:16;9.52;;;4.13;;
25569;SDS011;17955;45.542;9.238;2022-07-15T13:04:43;9.35;;;3.80;;
25569;SDS011;17955;45.542;9.238;2022-07-15T13:07:10;6.28;;;3.55;;
25569;SDS011;17955;45.542;9.238;2022-07-15T13:09:37;6.45;;;3.50;;
25569;SDS011;17955;45.542;9.238;2022-07-15T13:12:07;6.43;;;3.30;;
25569;SDS011;17955;45.542;9.238;2022-07-15T13:14:34;9.18;;;3.45;;
25569;SDS011;17955;45.542;9.238;2022-07-15T13:17:01;10.30;;;3.15;;
25569;SDS011;17955;45.542;9.238;2022-07-15T13:19:28;7.80;;;3.72;;
25569;SDS011;17955;45.542;9.238;2022-07-15T13:21:55;5.60;;;3.60;;
25569;SDS011;17955;45.542;9.238;2022-07-15T13:24:23;6.25;;;3.50;;
25569;SDS011;17955;45.542;9.238;2022-07-15T13:26:50;8.93;;;3.67;;
25569;SDS011;17955;45.542;9.238;2022-07-15T13:29:18;4.32;;;3.25;;
25569;SDS011;17955;45.542;9.238;2022-07-15T13:31:45;4.88;;;3.42;;
25569;SDS011;17955;45.542;9.238;2022-07-15T13:34:12;5.80;;;3.28;;
25569;SDS011;17955;45.542;9.238;2022-07-15T13:36:39;6.57;;;4.00;;
25569;SDS011;17955;45.542;9.238;2022-07-15T13:39:06;4.72;;;3.00;;
25569;SDS011;17955;45.542;9.238;2022-07-15T13:41:33;6.07;;;3.22;;
25569;SDS011;17955;45.542;9.238;2022-07-15T13:44:00;5.63;;;3.60;;
25569;SDS011;17955;45.542;9.238;2022-07-15T13:46:28;6.00;;;3.05;;
25569;SDS011;17955;45.542;9.238;2022-07-15T13:48:55;8.23;;;2.90;;
25569;SDS011;17955;45.542;9.238;2022-07-15T13:51:22;6.20;;;3.13;;
25569;SDS011;17955;45.542;9.238;2022-07-15T13:53:48;5.65;;;3.53;;
25569;SDS011;17955;45.542;9.238;2022-07-15T13:56:15;5.18;;;2.50;;
25569;SDS011;17955;45.542;9.238;2022-07-15T13:58:42;11.73;;;3.05;;
25569;SDS011;17955;45.542;9.238;2022-07-15T14:01:09;5.47;;;2.90;;
25569;SDS011;17955;45.542;9.238;2022-07-15T14:03:38;4.95;;;3.20;;
25569;SDS011;17955;45.542;9.238;2022-07-15T14:06:05;4.88;;;3.20;;
25569;SDS011;17955;45.542;9.238;2022-07-15T14:08:32;9.80;;;3.60;;
25569;SDS011;17955;45.542;9.238;2022-07-15T14:11:00;6.88;;;3.90;;
25569;SDS011;17955;45.542;9.238;2022-07-15T14:13:27;7.65;;;3.40;;
25569;SDS011;17955;45.542;9.238;2022-07-15T14:15:54;7.57;;;3.33;;
25569;SDS011;17955;45.542;9.238;2022-07-15T14:18:21;4.72;;;3.13;;
25569;SDS011;17955;45.542;9.238;2022-07-15T14:21:09;6.75;;;3.00;;
25569;SDS011;17955;45.542;9.238;2022-07-15T14:23:36;4.60;;;2.65;;
25569;SDS011;17955;45.542;9.238;2022-07-15T14:26:03;8.15;;;2.85;;
25569;SDS011;17955;45.542;9.238;2022-07-15T14:28:31;4.40;;;2.60;;
25569;SDS011;17955;45.542;9.238;2022-07-15T14:30:58;5.03;;;2.90;;
25569;SDS011;17955;45.542;9.238;2022-07-15T14:33:25;7.43;;;2.67;;
25569;SDS011;17955;45.542;9.238;2022-07-15T14:35:52;10.95;;;4.18;;
25569;SDS011;17955;45.542;9.238;2022-07-15T14:38:20;12.52;;;3.10;;
25569;SDS011;17955;45.542;9.238;2022-07-15T14:40:47;6.22;;;2.40;;
25569;SDS011;17955;45.542;9.238;2022-07-15T14:43:14;4.32;;;2.67;;
25569;SDS011;17955;45.542;9.238;2022-07-15T14:45:41;4.97;;;2.80;;
25569;SDS011;17955;45.542;9.238;2022-07-15T14:48:08;6.57;;;2.40;;
25569;SDS011;17955;45.542;9.238;2022-07-15T14:50:36;3.38;;;1.92;;
25569;SDS011;17955;45.542;9.238;2022-07-15T14:53:03;4.15;;;2.25;;
25569;SDS011;17955;45.542;9.238;2022-07-15T14:55:31;9.88;;;3.10;;
25569;SDS011;17955;45.542;9.238;2022-07-15T14:57:58;7.53;;;2.35;;
25569;SDS011;17955;45.542;9.238;2022-07-15T15:00:25;6.68;;;2.33;;
25569;SDS011;17955;45.542;9.238;2022-07-15T15:02:52;5.90;;;2.20;;
25569;SDS011;17955;45.542;9.238;2022-07-15T15:05:19;7.32;;;1.90;;
25569;SDS011;17955;45.542;9.238;2022-07-15T15:07:46;7.78;;;2.10;;
25569;SDS011;17955;45.542;9.238;2022-07-15T15:10:13;4.93;;;1.80;;
25569;SDS011;17955;45.542;9.238;2022-07-15T15:12:42;5.10;;;2.05;;
25569;SDS011;17955;45.542;9.238;2022-07-15T15:15:09;4.70;;;1.83;;
25569;SDS011;17955;45.542;9.238;2022-07-15T15:17:37;3.40;;;1.58;;